• Join FlightAware (Why Join?)
  • Login
  • US Flag 
07:40AM EDT


 

Airport Tracker/Info


-or-


 

Live Flight TrackerFlight Track Log ✈ N789AM ✈ 16-Apr-2014 ✈ KMAO - KFPR

Flight Track Log - Related Links

Times and Time Zones

All times are in EDT time to prevent confusion due to time zone crossing. See the N789AM flight status page for this flight to view local times or setup timezone preferences in your user account.

Time Position Orientation Groundspeed Altitude Reporting Facility
EDT Latitude Longitude Course Direction KTS MPH feet Rate Location/Type
08:22PM 28.8167 -80.8333 170° South 187 215 3,700  Level Orlando TRACON
08:23PM 28.7500 -80.8167 168° South 188 216 3,000 -480 Descending Orlando TRACON
08:24PM 28.7000 -80.8167 180° South 173 199 2,800 -120 Descending Orlando TRACON
08:25PM 28.6667 -80.8000 156° South 167 192 2,800  Level Orlando TRACON
08:26PM 28.6167 -80.7833 164° South 163 188 2,900 240 Climbing Orlando TRACON
08:27PM 28.6591 -80.6084 170° South  Level FlightAware Approximate
08:27PM 28.5833 -80.7667 156° South 159 183 3,300  Level Orlando TRACON
08:28PM 28.5333 -80.7667 180° South 165 190 3,300  Level Orlando TRACON
08:29PM 28.4833 -80.7500 164° South 170 196 3,400 -120 Climbing Orlando TRACON
08:30PM 28.4333 -80.7333 164° South 175 201 3,100 -180 Descending Orlando TRACON
08:31PM 28.3833 -80.7333 180° South 174 200 3,100  Level Orlando TRACON
08:32PM 28.3333 -80.7000 150° Southeast 166 191 3,100  Level Orlando TRACON
08:33PM 28.3000 -80.7000 180° South 171 197 3,100  Level Orlando TRACON
08:34PM 28.2500 -80.6833 164° South 170 196 3,100 -60 Level Orlando TRACON
08:35PM 28.2167 -80.6667 156° South 170 196 3,000  Descending Orlando TRACON
08:36PM 28.1667 -80.6333 150° Southeast 165 190 3,100  Climbing Orlando TRACON
08:37PM 28.1333 -80.6167 156° South 169 194 3,000  Descending Orlando TRACON
08:38PM 28.0833 -80.6000 164° South 167 192 3,100  Climbing Orlando TRACON
08:39PM 28.0247 -80.5847 167° South 171 197 3,100  Level Miami Center
08:40PM 27.9814 -80.5669 160° South 171 197 3,100  Level Miami Center
08:41PM 27.9403 -80.5492 159° South 166 191 3,100 -60 Level Miami Center
08:42PM 27.8989 -80.5267 154° Southeast 166 191 3,000 -60 Descending Miami Center
08:43PM 27.8450 -80.5178 172° South 166 191 3,000 -60 Level Miami Center
08:44PM 27.7992 -80.5094 171° South 166 191 2,900  Descending Miami Center
08:45PM 27.7536 -80.5033 173° South 171 197 3,100 -120 Climbing Miami Center
08:46PM 27.7097 -80.5019 178° South 176 203 2,700 -300 Descending Miami Center
08:47PM 27.6533 -80.4978 176° South 182 209 2,500 -120 Descending Miami Center
08:48PM 27.6056 -80.4961 178° South 176 203 2,500  Level Miami Center